createdAt,value
2017-04-11T00:00:34.383Z,0
2017-04-11T00:01:34.986Z,0
2017-04-11T00:02:35.590Z,0
2017-04-11T00:03:36.188Z,0
2017-04-11T00:04:36.794Z,0
2017-04-11T00:05:37.399Z,0
2017-04-11T00:06:37.996Z,0
2017-04-11T00:07:38.598Z,0
2017-04-11T00:08:39.199Z,0
2017-04-11T00:09:39.813Z,0
2017-04-11T00:10:40.414Z,0
2017-04-11T00:11:41.020Z,0
2017-04-11T00:12:41.624Z,0
2017-04-11T00:13:42.220Z,0
2017-04-11T00:14:42.821Z,0
2017-04-11T00:15:43.443Z,0
2017-04-11T00:16:44.045Z,0
2017-04-11T00:17:44.643Z,0
2017-04-11T00:18:45.243Z,0
2017-04-11T00:19:45.845Z,0
2017-04-11T00:20:46.445Z,0
2017-04-11T00:21:47.046Z,0
2017-04-11T00:22:47.647Z,0
2017-04-11T00:23:48.248Z,0
2017-04-11T00:24:48.848Z,0
2017-04-11T00:25:49.449Z,0
2017-04-11T00:26:50.049Z,0
2017-04-11T00:27:50.648Z,0
2017-04-11T00:28:51.247Z,0
2017-04-11T00:29:51.848Z,0
2017-04-11T00:30:52.449Z,0
2017-04-11T00:31:53.069Z,0
2017-04-11T00:32:53.668Z,0
2017-04-11T00:33:54.269Z,0
2017-04-11T00:34:54.875Z,0
2017-04-11T00:35:55.472Z,0
2017-04-11T00:36:56.072Z,0
2017-04-11T00:37:56.673Z,0
2017-04-11T00:38:57.272Z,0
2017-04-11T00:39:57.875Z,0
2017-04-11T00:40:58.476Z,0
2017-04-11T00:41:59.079Z,0
2017-04-11T00:42:59.692Z,0
2017-04-11T00:44:00.290Z,0
2017-04-11T00:45:00.891Z,0
2017-04-11T00:46:01.498Z,0
2017-04-11T00:47:02.101Z,0
2017-04-11T00:48:02.723Z,0
2017-04-11T00:49:03.325Z,0
2017-04-11T00:50:03.923Z,0
2017-04-11T00:51:04.524Z,0
2017-04-11T00:52:05.125Z,0
2017-04-11T00:53:05.726Z,0
2017-04-11T00:54:06.324Z,0
2017-04-11T00:55:06.927Z,0
2017-04-11T00:56:07.526Z,0
2017-04-11T00:57:08.132Z,0
2017-04-11T00:58:08.731Z,0
2017-04-11T00:59:09.330Z,0
2017-04-11T01:00:09.948Z,0
2017-04-11T01:01:10.552Z,0
2017-04-11T01:02:11.168Z,0
2017-04-11T01:03:11.769Z,0
2017-04-11T01:04:12.369Z,0
2017-04-11T01:05:12.973Z,0
2017-04-11T01:06:13.568Z,0
2017-04-11T01:07:14.185Z,0
2017-04-11T01:08:14.785Z,0
2017-04-11T01:09:15.391Z,0
2017-04-11T01:10:16.006Z,0
2017-04-11T01:11:16.606Z,0
2017-04-11T01:12:17.206Z,0
2017-04-11T01:13:17.812Z,0
2017-04-11T01:14:18.416Z,0
2017-04-11T01:15:19.017Z,0
2017-04-11T01:16:19.616Z,0
2017-04-11T01:17:20.216Z,0
2017-04-11T01:18:20.817Z,0
2017-04-11T01:19:21.416Z,0
2017-04-11T01:20:22.016Z,0
2017-04-11T01:21:22.616Z,0
2017-04-11T01:22:23.222Z,0
2017-04-11T01:23:23.825Z,0
2017-04-11T01:24:24.422Z,0
2017-04-11T01:25:25.037Z,0
2017-04-11T01:26:25.644Z,0
2017-04-11T01:27:26.241Z,0
2017-04-11T01:28:26.842Z,0
2017-04-11T01:29:27.446Z,0
2017-04-11T01:30:28.042Z,0
2017-04-11T01:31:28.647Z,0
2017-04-11T01:32:29.249Z,0
2017-04-11T01:33:29.846Z,0
2017-04-11T01:34:30.452Z,0
2017-04-11T01:35:31.055Z,0
2017-04-11T01:36:31.657Z,0
2017-04-11T01:37:32.256Z,0
2017-04-11T01:38:32.854Z,0
2017-04-11T01:39:33.469Z,0
2017-04-11T01:40:34.072Z,0
2017-04-11T01:41:34.671Z,0
2017-04-11T01:42:35.271Z,0
2017-04-11T01:43:35.876Z,0
2017-04-11T01:44:36.471Z,0
2017-04-11T01:45:37.091Z,0
2017-04-11T01:46:37.690Z,0
2017-04-11T01:47:38.289Z,0
2017-04-11T01:48:38.891Z,0
2017-04-11T01:49:39.495Z,0
2017-04-11T01:50:40.094Z,0
2017-04-11T01:51:40.699Z,0
2017-04-11T01:52:41.296Z,0
2017-04-11T01:53:41.903Z,0
2017-04-11T01:54:42.496Z,0
2017-04-11T01:55:43.096Z,0
2017-04-11T01:56:43.711Z,0
2017-04-11T01:57:44.310Z,0
2017-04-11T01:58:44.918Z,0
2017-04-11T01:59:45.520Z,0
2017-04-11T02:00:46.118Z,0
2017-04-11T02:01:46.716Z,0
2017-04-11T02:02:47.323Z,0
2017-04-11T02:05:04.012Z,0
2017-04-11T02:06:04.604Z,0
2017-04-11T02:07:05.202Z,0
2017-04-11T02:08:05.803Z,0
2017-04-11T02:09:06.403Z,0
2017-04-11T02:10:07.253Z,0
2017-04-11T02:11:07.854Z,0
2017-04-11T02:12:08.458Z,0
2017-04-11T02:13:09.073Z,0
2017-04-11T02:14:09.680Z,0
2017-04-11T02:15:10.277Z,0
2017-04-11T02:16:10.878Z,0
2017-04-11T02:17:11.476Z,0
2017-04-11T02:18:12.077Z,0
2017-04-11T02:19:12.676Z,0
2017-04-11T02:20:13.295Z,0
2017-04-11T02:21:13.890Z,0
2017-04-11T02:22:14.491Z,0
2017-04-11T02:23:15.091Z,0
2017-04-11T02:24:15.690Z,0
2017-04-11T02:25:16.292Z,0
2017-04-11T02:26:16.898Z,0
2017-04-11T02:27:17.494Z,0
2017-04-11T02:28:18.093Z,0
2017-04-11T02:29:18.700Z,0
2017-04-11T02:30:19.319Z,0
2017-04-11T02:31:19.915Z,0
2017-04-11T02:32:20.514Z,0
2017-04-11T02:33:21.131Z,0
2017-04-11T02:34:21.729Z,0
2017-04-11T02:35:22.336Z,0
2017-04-11T02:36:22.934Z,0
2017-04-11T02:37:23.533Z,0
2017-04-11T02:38:24.136Z,0
2017-04-11T02:39:24.741Z,0
2017-04-11T02:40:25.338Z,0
2017-04-11T02:41:25.936Z,0
2017-04-11T02:42:26.541Z,0
2017-04-11T02:43:27.158Z,0
2017-04-11T02:44:27.757Z,0
2017-04-11T02:45:28.356Z,0
2017-04-11T02:46:28.957Z,0
2017-04-11T02:47:29.555Z,0
2017-04-11T02:48:30.174Z,0
2017-04-11T02:49:30.772Z,0
2017-04-11T02:50:31.388Z,0
2017-04-11T02:51:31.987Z,0
2017-04-11T02:52:32.587Z,0
2017-04-11T02:53:33.186Z,0
2017-04-11T02:54:33.786Z,0
2017-04-11T02:55:34.390Z,0
2017-04-11T02:56:34.987Z,0
2017-04-11T02:57:35.588Z,0
2017-04-11T02:58:36.204Z,0
2017-04-11T02:59:36.807Z,0
2017-04-11T03:00:37.405Z,0
2017-04-11T03:01:38.004Z,0
2017-04-11T03:02:38.608Z,0
2017-04-11T03:03:39.219Z,0
2017-04-11T03:04:39.823Z,0
2017-04-11T03:05:40.422Z,0
2017-04-11T03:06:41.023Z,0
2017-04-11T03:07:41.629Z,0
2017-04-11T03:08:42.226Z,0
2017-04-11T03:09:42.831Z,0
2017-04-11T03:10:43.429Z,0
2017-04-11T03:11:44.033Z,0
2017-04-11T03:12:44.630Z,0
2017-04-11T03:13:45.229Z,0
2017-04-11T03:14:45.830Z,0
2017-04-11T03:15:46.429Z,0
2017-04-11T03:16:47.027Z,0
2017-04-11T03:17:47.629Z,0
2017-04-11T03:18:48.233Z,0
2017-04-11T03:19:48.836Z,0
2017-04-11T03:20:49.431Z,0
2017-04-11T03:21:50.052Z,0
2017-04-11T03:22:50.648Z,0
2017-04-11T03:23:51.252Z,0
2017-04-11T03:24:51.854Z,0
2017-04-11T03:25:52.450Z,0
2017-04-11T03:26:53.050Z,0
2017-04-11T03:27:53.666Z,0
2017-04-11T03:28:54.264Z,0
2017-04-11T03:29:54.863Z,0
2017-04-11T03:30:55.464Z,0
2017-04-11T03:31:56.069Z,0
2017-04-11T03:32:56.670Z,0
2017-04-11T03:33:57.266Z,0
2017-04-11T03:34:57.867Z,0
2017-04-11T03:35:58.466Z,0
2017-04-11T03:36:59.081Z,0
2017-04-11T03:37:59.680Z,0
2017-04-11T03:39:00.285Z,0
2017-04-11T03:40:00.884Z,0
2017-04-11T03:41:01.483Z,0
2017-04-11T03:42:02.081Z,0
2017-04-11T03:43:02.681Z,0
2017-04-11T03:44:03.297Z,0
2017-04-11T03:45:03.895Z,0
2017-04-11T03:46:04.500Z,0
2017-04-11T03:47:05.105Z,0
2017-04-11T03:48:05.717Z,0
2017-04-11T03:49:06.317Z,0
2017-04-11T03:50:06.942Z,0
2017-04-11T03:51:07.516Z,0
2017-04-11T03:52:08.113Z,0
2017-04-11T03:53:08.714Z,0
2017-04-11T03:54:09.313Z,0
2017-04-11T03:55:09.919Z,0
2017-04-11T03:56:10.515Z,0
2017-04-11T03:57:11.114Z,0
2017-04-11T03:58:11.717Z,0
2017-04-11T03:59:12.313Z,0
2017-04-11T04:00:12.919Z,0
2017-04-11T04:01:13.516Z,0
2017-04-11T04:02:14.117Z,0
2017-04-11T04:03:14.715Z,0
2017-04-11T04:04:15.313Z,0
2017-04-11T04:05:15.911Z,0
2017-04-11T04:06:16.511Z,0
2017-04-11T04:07:17.109Z,0
2017-04-11T04:08:17.713Z,0
2017-04-11T04:09:18.310Z,0
2017-04-11T04:10:18.910Z,0
2017-04-11T04:11:19.507Z,0
2017-04-11T04:12:20.109Z,0
2017-04-11T04:13:20.712Z,0
2017-04-11T04:14:21.315Z,0
2017-04-11T04:15:21.916Z,0
2017-04-11T04:16:22.512Z,0
2017-04-11T04:17:23.111Z,0
2017-04-11T04:18:23.710Z,0
2017-04-11T04:19:24.309Z,0
2017-04-11T04:20:24.906Z,0
2017-04-11T04:21:25.506Z,0
2017-04-11T04:22:26.104Z,0
2017-04-11T04:23:26.708Z,0
2017-04-11T04:24:27.311Z,0
2017-04-11T04:25:27.930Z,0
2017-04-11T04:26:28.528Z,4
2017-04-11T04:27:29.126Z,0
2017-04-11T04:28:29.742Z,4
2017-04-11T04:29:30.327Z,4
2017-04-11T04:30:30.925Z,4
2017-04-11T04:31:31.529Z,4
2017-04-11T04:32:32.124Z,4
2017-04-11T04:33:32.730Z,8
2017-04-11T04:34:33.344Z,8
2017-04-11T04:35:33.945Z,12
2017-04-11T04:36:34.560Z,8
2017-04-11T04:38:50.640Z,12
2017-04-11T04:39:51.247Z,16
2017-04-11T04:40:51.843Z,16
2017-04-11T04:41:52.460Z,20
2017-04-11T04:42:53.065Z,20
2017-04-11T04:43:53.682Z,24
2017-04-11T04:44:54.295Z,28
2017-04-11T04:45:54.895Z,32
2017-04-11T04:46:55.499Z,36
2017-04-11T04:47:56.103Z,36
2017-04-11T04:48:56.706Z,40
2017-04-11T04:49:57.304Z,44
2017-04-11T04:50:57.902Z,52
2017-04-11T04:51:58.507Z,52
2017-04-11T04:52:59.106Z,64
2017-04-11T04:53:59.705Z,68
2017-04-11T04:55:00.306Z,76
2017-04-11T04:56:00.906Z,88
2017-04-11T04:57:01.520Z,104
2017-04-11T04:58:02.127Z,120
2017-04-11T04:59:02.731Z,136
2017-04-11T05:00:03.330Z,148
2017-04-11T05:01:03.929Z,156
2017-04-11T05:02:04.546Z,164
2017-04-11T05:03:05.147Z,180
2017-04-11T05:04:05.749Z,196
2017-04-11T05:05:06.349Z,204
2017-04-11T05:06:06.952Z,212
2017-04-11T05:07:07.553Z,224
2017-04-11T05:08:08.159Z,240
2017-04-11T05:09:08.757Z,268
2017-04-11T05:10:09.359Z,304
2017-04-11T05:11:09.960Z,344
2017-04-11T05:12:10.568Z,392
2017-04-11T05:13:11.186Z,436
2017-04-11T05:14:11.789Z,472
2017-04-11T05:15:12.392Z,476
2017-04-11T05:16:12.992Z,456
2017-04-11T05:17:13.595Z,420
2017-04-11T05:18:14.197Z,400
2017-04-11T05:19:14.805Z,392
2017-04-11T05:20:15.410Z,396
2017-04-11T05:21:16.008Z,404
2017-04-11T05:22:16.616Z,416
2017-04-11T05:23:17.214Z,432
2017-04-11T05:24:17.832Z,448
2017-04-11T05:25:18.440Z,460
2017-04-11T05:26:19.041Z,468
2017-04-11T05:27:19.644Z,500
2017-04-11T05:28:20.243Z,532
2017-04-11T05:29:20.845Z,544
2017-04-11T05:30:21.448Z,560
2017-04-11T05:31:22.057Z,564
2017-04-11T05:32:22.655Z,572
2017-04-11T05:33:23.272Z,568
2017-04-11T05:34:23.874Z,552
2017-04-11T05:35:24.481Z,504
2017-04-11T05:36:25.099Z,472
2017-04-11T05:37:25.702Z,464
2017-04-11T05:38:26.304Z,464
2017-04-11T05:39:26.908Z,464
2017-04-11T05:40:27.509Z,464
2017-04-11T05:41:28.111Z,472
2017-04-11T05:42:28.717Z,480
2017-04-11T05:43:29.334Z,488
2017-04-11T05:44:29.935Z,488
2017-04-11T05:45:30.537Z,480
2017-04-11T05:46:31.139Z,476
2017-04-11T05:47:31.755Z,472
2017-04-11T05:48:32.375Z,460
2017-04-11T05:49:32.973Z,452
2017-04-11T05:50:33.575Z,452
2017-04-11T05:51:34.177Z,452
2017-04-11T05:52:34.780Z,480
2017-04-11T05:53:35.382Z,500
2017-04-11T05:54:35.983Z,516
2017-04-11T05:55:36.588Z,516
2017-04-11T05:56:37.189Z,520
2017-04-11T05:57:37.800Z,516
2017-04-11T05:58:38.397Z,496
2017-04-11T05:59:39.015Z,476
2017-04-11T06:00:39.616Z,472
2017-04-11T06:01:40.238Z,476
2017-04-11T06:02:40.842Z,472
2017-04-11T06:03:41.448Z,468
2017-04-11T06:04:42.066Z,476
2017-04-11T06:05:42.673Z,488
2017-04-11T06:06:43.272Z,504
2017-04-11T06:07:43.876Z,512
2017-04-11T06:08:44.479Z,536
2017-04-11T06:09:45.086Z,584
2017-04-11T06:10:45.685Z,652
2017-04-11T06:11:46.289Z,704
2017-04-11T06:12:46.891Z,720
2017-04-11T06:13:47.504Z,716
2017-04-11T06:14:48.116Z,712
2017-04-11T06:15:48.719Z,720
2017-04-11T06:16:49.325Z,752
2017-04-11T06:17:49.925Z,768
2017-04-11T06:18:50.526Z,784
2017-04-11T06:19:51.130Z,788
2017-04-11T06:20:51.748Z,824
2017-04-11T06:21:52.352Z,872
2017-04-11T06:22:52.959Z,948
2017-04-11T06:23:53.558Z,1108
2017-04-11T06:24:54.168Z,1236
2017-04-11T06:25:54.768Z,1304
2017-04-11T06:26:55.371Z,1324
2017-04-11T06:27:55.975Z,1356
2017-04-11T06:28:56.578Z,1412
2017-04-11T06:29:57.181Z,1484
2017-04-11T06:30:57.784Z,1584
2017-04-11T06:31:58.387Z,1680
2017-04-11T06:32:58.990Z,1748
2017-04-11T06:33:59.631Z,1776
2017-04-11T06:35:00.197Z,1784
2017-04-11T06:36:00.798Z,1888
2017-04-11T06:37:01.416Z,1904
2017-04-11T06:38:02.026Z,2080
2017-04-11T06:39:02.632Z,2220
2017-04-11T06:40:03.239Z,2212
2017-04-11T06:41:03.845Z,2136
2017-04-11T06:42:04.449Z,2068
2017-04-11T06:43:05.077Z,1792
2017-04-11T06:44:05.674Z,1500
2017-04-11T06:45:06.277Z,1276
2017-04-11T06:46:06.879Z,1104
2017-04-11T06:47:07.483Z,984
2017-04-11T06:48:08.087Z,900
2017-04-11T06:49:08.688Z,904
2017-04-11T06:50:09.291Z,1056
2017-04-11T06:51:09.900Z,1196
2017-04-11T06:52:10.502Z,1280
2017-04-11T06:53:11.105Z,1344
2017-04-11T06:54:11.724Z,1472
2017-04-11T06:55:12.333Z,1612
2017-04-11T06:56:12.934Z,1764
2017-04-11T06:57:13.552Z,1968
2017-04-11T06:58:14.155Z,2116
2017-04-11T06:59:14.760Z,2380
2017-04-11T07:00:15.363Z,3732
2017-04-11T07:01:15.974Z,2620
2017-04-11T07:02:16.584Z,2760
2017-04-11T07:03:17.186Z,4264
2017-04-11T07:04:17.789Z,3012
2017-04-11T07:05:18.392Z,3212
2017-04-11T07:06:19.004Z,3480
2017-04-11T07:07:19.605Z,3920
2017-04-11T07:08:20.212Z,4440
2017-04-11T07:09:20.835Z,4936
2017-04-11T07:10:21.437Z,5192
2017-04-11T07:11:22.050Z,5308
2017-04-11T07:12:22.669Z,5320
2017-04-11T07:13:23.276Z,5180
2017-04-11T07:14:23.885Z,4968
2017-04-11T07:15:24.488Z,4784
2017-04-11T07:16:25.093Z,4668
2017-04-11T07:17:25.704Z,4972
2017-04-11T07:18:26.306Z,5696
2017-04-11T07:19:26.913Z,6548
2017-04-11T07:20:27.526Z,7276
2017-04-11T07:21:28.134Z,8940
2017-04-11T07:22:28.737Z,8144
2017-04-11T07:23:29.347Z,8324
2017-04-11T07:24:29.965Z,7796
2017-04-11T07:25:30.572Z,7056
2017-04-11T07:26:31.179Z,6936
2017-04-11T07:27:31.785Z,5264
2017-04-11T07:28:32.396Z,4740
2017-04-11T07:29:33.000Z,4664
2017-04-11T07:30:33.606Z,5280
2017-04-11T07:31:34.214Z,5296
2017-04-11T07:32:34.819Z,5788
2017-04-11T07:33:35.434Z,8772
2017-04-11T07:34:36.044Z,6772
2017-04-11T07:35:36.654Z,7644
2017-04-11T07:36:37.259Z,4288
2017-04-11T07:37:37.867Z,3940
2017-04-11T07:38:38.484Z,3868
2017-04-11T07:39:39.083Z,4024
2017-04-11T07:40:39.693Z,4532
2017-04-11T07:41:40.321Z,5628
2017-04-11T07:42:40.934Z,9756
2017-04-11T07:43:41.541Z,12260
2017-04-11T07:44:42.150Z,12512
2017-04-11T07:45:42.765Z,11844
2017-04-11T07:46:43.369Z,9524
2017-04-11T07:47:43.994Z,9260
2017-04-11T07:48:44.627Z,10704
2017-04-11T07:49:45.233Z,13788
2017-04-11T07:50:45.843Z,14172
2017-04-11T07:51:46.459Z,13748
2017-04-11T07:52:47.073Z,11996
2017-04-11T07:53:47.700Z,8320
2017-04-11T07:54:48.309Z,5156
2017-04-11T07:55:48.922Z,4588
2017-04-11T07:56:49.535Z,4512
2017-04-11T07:57:50.144Z,4588
2017-04-11T07:58:50.756Z,4788
2017-04-11T07:59:51.367Z,5332
2017-04-11T08:00:51.992Z,6580
2017-04-11T08:01:52.601Z,6488
2017-04-11T08:02:53.213Z,6976
2017-04-11T08:03:53.824Z,6804
2017-04-11T08:04:54.449Z,6812
2017-04-11T08:05:55.059Z,7200
2017-04-11T08:06:55.669Z,8276
2017-04-11T08:07:56.281Z,7580
2017-04-11T08:08:56.891Z,6644
2017-04-11T08:09:57.500Z,6824
2017-04-11T08:10:58.111Z,7672
2017-04-11T08:11:58.721Z,9392
2017-04-11T08:12:59.334Z,11576
2017-04-11T08:13:59.952Z,12320
2017-04-11T08:15:00.567Z,11968
2017-04-11T08:16:01.174Z,11616
2017-04-11T08:17:01.786Z,11288
2017-04-11T08:18:02.399Z,11332
2017-04-11T08:19:03.011Z,7404
2017-04-11T08:20:03.626Z,5024
2017-04-11T08:21:04.251Z,4672
2017-04-11T08:22:04.864Z,4624
2017-04-11T08:23:05.477Z,4732
2017-04-11T08:24:06.092Z,5096
2017-04-11T08:25:06.707Z,5872
2017-04-11T08:26:07.316Z,5740
2017-04-11T08:27:07.928Z,5976
2017-04-11T08:28:08.541Z,6172
2017-04-11T08:29:09.164Z,6912
2017-04-11T08:30:09.769Z,6156
2017-04-11T08:31:10.377Z,4900
2017-04-11T08:32:10.989Z,4480
2017-04-11T08:33:11.599Z,4312
2017-04-11T08:34:12.211Z,4436
2017-04-11T08:35:12.836Z,4784
2017-04-11T08:36:13.454Z,6144
2017-04-11T08:37:14.062Z,8496
2017-04-11T08:38:14.688Z,12720
2017-04-11T08:39:15.358Z,12832
2017-04-11T08:40:15.986Z,8024
2017-04-11T08:41:16.597Z,7196
2017-04-11T08:42:17.209Z,6176
2017-04-11T08:43:17.834Z,5992
2017-04-11T08:44:18.445Z,6768
2017-04-11T08:45:19.063Z,7612
2017-04-11T08:46:19.673Z,8316
2017-04-11T08:47:20.284Z,9732
2017-04-11T08:48:20.894Z,9560
2017-04-11T08:49:21.512Z,9760
2017-04-11T08:50:22.119Z,8064
2017-04-11T08:51:22.740Z,5524
2017-04-11T08:52:23.349Z,5208
2017-04-11T08:53:23.968Z,5424
2017-04-11T08:54:24.575Z,5668
2017-04-11T08:55:25.186Z,5932
2017-04-11T08:56:25.798Z,6508
2017-04-11T08:57:26.410Z,6952
2017-04-11T08:58:27.022Z,7060
2017-04-11T08:59:27.633Z,6268
2017-04-11T09:00:28.244Z,6652
2017-04-11T09:01:28.855Z,7556
2017-04-11T09:02:29.465Z,8124
2017-04-11T09:03:30.091Z,8360
2017-04-11T09:04:30.708Z,8380
2017-04-11T09:05:31.317Z,7768
2017-04-11T09:06:31.930Z,7816
2017-04-11T09:07:32.544Z,6840
2017-04-11T09:08:33.154Z,6164
2017-04-11T09:09:33.765Z,6112
2017-04-11T09:10:34.377Z,6300
2017-04-11T09:11:34.997Z,6456
2017-04-11T09:12:35.610Z,10480
2017-04-11T09:13:36.221Z,13628
2017-04-11T09:14:36.836Z,14368
2017-04-11T09:15:37.448Z,13708
2017-04-11T09:16:38.061Z,11916
2017-04-11T09:17:38.681Z,11116
2017-04-11T09:18:39.307Z,9244
2017-04-11T09:19:39.926Z,9252
2017-04-11T09:20:40.561Z,9004
2017-04-11T09:21:41.190Z,10012
2017-04-11T09:22:41.806Z,10752
2017-04-11T09:23:42.427Z,9696
2017-04-11T09:24:43.040Z,10000
2017-04-11T09:25:43.654Z,13112
2017-04-11T09:26:44.276Z,11548
2017-04-11T09:27:44.894Z,14720
2017-04-11T09:28:45.506Z,14976
2017-04-11T09:29:46.124Z,15456
2017-04-11T09:30:46.742Z,15648
2017-04-11T09:31:47.358Z,13160
2017-04-11T09:32:47.983Z,14688
2017-04-11T09:33:48.597Z,15744
2017-04-11T09:34:49.212Z,16192
2017-04-11T09:35:49.829Z,16064
2017-04-11T09:36:50.448Z,14976
2017-04-11T09:37:51.067Z,15680
2017-04-11T09:38:51.687Z,16064
2017-04-11T09:39:52.322Z,17024
2017-04-11T09:40:52.957Z,14624
2017-04-11T09:41:53.583Z,12396
2017-04-11T09:42:54.207Z,15104
2017-04-11T09:43:54.830Z,10952
2017-04-11T09:44:55.449Z,8504
2017-04-11T09:45:56.067Z,8584
2017-04-11T09:46:56.686Z,6468
2017-04-11T09:47:57.306Z,12064
2017-04-11T09:48:57.924Z,9964
2017-04-11T09:49:58.545Z,9432
2017-04-11T09:50:59.165Z,10620
2017-04-11T09:51:59.790Z,10888
2017-04-11T09:53:00.405Z,7168
2017-04-11T09:54:01.023Z,6760
2017-04-11T09:55:01.641Z,6468
2017-04-11T09:56:02.260Z,6540
2017-04-11T09:57:02.885Z,9172
2017-04-11T09:58:03.514Z,6696
2017-04-11T09:59:04.140Z,6364
2017-04-11T10:00:04.760Z,9212
2017-04-11T10:01:05.374Z,7292
2017-04-11T10:02:05.990Z,6568
2017-04-11T10:03:06.623Z,6276
2017-04-11T10:04:07.238Z,9260
2017-04-11T10:05:07.853Z,6624
2017-04-11T10:06:08.473Z,6776
2017-04-11T10:07:09.086Z,5492
2017-04-11T10:08:09.717Z,5520
2017-04-11T10:09:10.331Z,5440
2017-04-11T10:10:10.947Z,5012
2017-04-11T10:11:11.567Z,4952
2017-04-11T10:12:12.183Z,5116
2017-04-11T10:13:12.794Z,5216
2017-04-11T10:14:13.412Z,5020
2017-04-11T10:15:14.020Z,4924
2017-04-11T10:16:14.654Z,4968
2017-04-11T10:17:15.265Z,5312
2017-04-11T10:18:15.878Z,5564
2017-04-11T10:19:16.491Z,5720
2017-04-11T10:20:17.120Z,5868
2017-04-11T10:21:17.733Z,5796
2017-04-11T10:22:18.353Z,5624
2017-04-11T10:23:18.977Z,5532
2017-04-11T10:24:19.591Z,5464
2017-04-11T10:25:20.212Z,5392
2017-04-11T10:26:20.816Z,5564
2017-04-11T10:27:21.428Z,5600
2017-04-11T10:28:22.043Z,5904
2017-04-11T10:29:22.653Z,8084
2017-04-11T10:30:23.276Z,7256
2017-04-11T10:31:23.881Z,6068
2017-04-11T10:32:24.492Z,5844
2017-04-11T10:33:25.105Z,5712
2017-04-11T10:34:25.715Z,5548
2017-04-11T10:35:26.327Z,5344
2017-04-11T10:36:26.940Z,5120
2017-04-11T10:37:27.566Z,4968
2017-04-11T10:38:28.185Z,4804
2017-04-11T10:39:28.794Z,4612
2017-04-11T10:40:29.405Z,4456
2017-04-11T10:41:30.015Z,4376
2017-04-11T10:42:30.626Z,4344
2017-04-11T10:43:31.237Z,4284
2017-04-11T10:44:31.849Z,4196
2017-04-11T10:45:32.461Z,4076
2017-04-11T10:46:33.073Z,3968
2017-04-11T10:47:33.683Z,3924
2017-04-11T10:48:34.293Z,3860
2017-04-11T10:49:34.907Z,3816
2017-04-11T10:50:35.517Z,3788
2017-04-11T10:51:36.134Z,3808
2017-04-11T10:52:36.741Z,3828
2017-04-11T10:53:37.352Z,3852
2017-04-11T10:54:37.962Z,3916
2017-04-11T10:55:38.572Z,3932
2017-04-11T10:56:39.189Z,4052
2017-04-11T10:57:39.796Z,4212
2017-04-11T10:58:40.405Z,4316
2017-04-11T10:59:41.015Z,4304
2017-04-11T11:00:41.630Z,4292
2017-04-11T11:01:42.236Z,4308
2017-04-11T11:02:42.847Z,4320
2017-04-11T11:03:43.463Z,4336
2017-04-11T11:04:44.070Z,4404
2017-04-11T11:05:44.693Z,4492
2017-04-11T11:06:45.291Z,4624
2017-04-11T11:07:45.901Z,4832
2017-04-11T11:08:46.512Z,5020
2017-04-11T11:09:47.122Z,5080
2017-04-11T11:10:47.737Z,5044
2017-04-11T11:11:48.343Z,4940
2017-04-11T11:12:48.959Z,4812
2017-04-11T11:13:49.568Z,4748
2017-04-11T11:14:50.177Z,4808
2017-04-11T11:15:50.787Z,4932
2017-04-11T11:16:51.404Z,5136
2017-04-11T11:17:52.010Z,5320
2017-04-11T11:18:52.619Z,5352
2017-04-11T11:19:53.230Z,5256
2017-04-11T11:20:53.854Z,5048
2017-04-11T11:21:54.483Z,4788
2017-04-11T11:22:55.103Z,4576
2017-04-11T11:23:55.718Z,4464
2017-04-11T11:24:56.326Z,4376
2017-04-11T11:25:56.935Z,4312
2017-04-11T11:26:57.544Z,4280
2017-04-11T11:27:58.161Z,4212
2017-04-11T11:28:58.810Z,4080
2017-04-11T11:29:59.380Z,3960
2017-04-11T11:30:59.988Z,3904
2017-04-11T11:32:00.599Z,3896
2017-04-11T11:33:01.214Z,3916
2017-04-11T11:34:01.823Z,3932
2017-04-11T11:35:02.442Z,3920
2017-04-11T11:36:03.042Z,3944
2017-04-11T11:37:03.651Z,4008
2017-04-11T11:38:04.261Z,4080
2017-04-11T11:39:04.877Z,4096
2017-04-11T11:40:05.485Z,4088
2017-04-11T11:41:06.097Z,4068
2017-04-11T11:42:06.712Z,4092
2017-04-11T11:43:07.324Z,4148
2017-04-11T11:44:07.930Z,4236
2017-04-11T11:45:08.544Z,4348
2017-04-11T11:46:09.152Z,4432
2017-04-11T11:47:09.765Z,4412
2017-04-11T11:48:10.389Z,4356
2017-04-11T11:49:10.999Z,4304
2017-04-11T11:50:11.609Z,4284
2017-04-11T11:51:12.218Z,4248
2017-04-11T11:52:12.827Z,4216
2017-04-11T11:53:13.436Z,4132
2017-04-11T11:54:14.046Z,3916
2017-04-11T11:55:14.657Z,3752
2017-04-11T11:56:15.266Z,3644
2017-04-11T11:57:15.880Z,3548
2017-04-11T11:58:16.494Z,3508
2017-04-11T11:59:17.100Z,3564
2017-04-11T12:00:17.710Z,3732
2017-04-11T12:01:18.335Z,3856
2017-04-11T12:02:18.959Z,3888
2017-04-11T12:03:19.569Z,3852
2017-04-11T12:04:20.184Z,3788
2017-04-11T12:05:20.797Z,3740
2017-04-11T12:06:21.403Z,3616
2017-04-11T12:07:22.011Z,3548
2017-04-11T12:08:22.634Z,3588
2017-04-11T12:09:23.244Z,3604
2017-04-11T12:10:23.857Z,3652
2017-04-11T12:11:24.464Z,3640
2017-04-11T12:12:25.072Z,3568
2017-04-11T12:13:25.691Z,3504
2017-04-11T12:14:26.302Z,3516
2017-04-11T12:15:26.912Z,3516
2017-04-11T12:16:27.520Z,3512
2017-04-11T12:17:28.137Z,3456
2017-04-11T12:18:28.740Z,3348
2017-04-11T12:19:29.349Z,3216
2017-04-11T12:20:29.965Z,3132
2017-04-11T12:21:30.573Z,3080
2017-04-11T12:22:31.196Z,3020
2017-04-11T12:23:31.812Z,2972
2017-04-11T12:24:32.424Z,2920
2017-04-11T12:25:33.048Z,2892
2017-04-11T12:26:33.659Z,2892
2017-04-11T12:27:34.268Z,2896
2017-04-11T12:28:34.877Z,2880
2017-04-11T12:29:35.487Z,2876
2017-04-11T12:30:36.100Z,2864
2017-04-11T12:31:36.706Z,2884
2017-04-11T12:32:37.315Z,2900
2017-04-11T12:33:37.923Z,2872
2017-04-11T12:34:38.531Z,2812
2017-04-11T12:35:39.142Z,2696
2017-04-11T12:36:39.754Z,2628
2017-04-11T12:37:40.361Z,2636
2017-04-11T12:38:40.971Z,2752
2017-04-11T12:39:41.579Z,2728
2017-04-11T12:40:42.196Z,2672
2017-04-11T12:41:42.805Z,2644
2017-04-11T12:42:43.430Z,2596
2017-04-11T12:43:44.038Z,2544
2017-04-11T12:44:44.649Z,2500
2017-04-11T12:45:45.257Z,2500
2017-04-11T12:46:45.867Z,2492
2017-04-11T12:47:46.496Z,2472
2017-04-11T12:48:47.107Z,2460
2017-04-11T12:49:47.713Z,2496
2017-04-11T12:50:48.321Z,2552
2017-04-11T12:51:48.929Z,2624
2017-04-11T12:52:49.540Z,2700
2017-04-11T12:53:50.148Z,2760
2017-04-11T12:54:50.758Z,2780
2017-04-11T12:55:51.367Z,2820
2017-04-11T12:56:51.999Z,2888
2017-04-11T12:57:52.605Z,2940
2017-04-11T12:58:53.217Z,3032
2017-04-11T12:59:53.820Z,3076
2017-04-11T13:00:54.429Z,3212
2017-04-11T13:01:55.043Z,3228
2017-04-11T13:02:55.668Z,3356
2017-04-11T13:03:56.276Z,3452
2017-04-11T13:04:56.884Z,3524
2017-04-11T13:05:57.500Z,3596
2017-04-11T13:06:58.128Z,3576
2017-04-11T13:07:58.733Z,3492
2017-04-11T13:08:59.342Z,3428
2017-04-11T13:09:59.951Z,3400
2017-04-11T13:11:00.559Z,3356
2017-04-11T13:12:01.190Z,3304
2017-04-11T13:13:01.795Z,3152
2017-04-11T13:14:02.402Z,3064
2017-04-11T13:15:03.026Z,3104
2017-04-11T13:16:03.641Z,3116
2017-04-11T13:17:04.248Z,3072
2017-04-11T13:18:04.855Z,3004
2017-04-11T13:19:05.465Z,2928
2017-04-11T13:20:06.073Z,2804
2017-04-11T13:21:06.688Z,2700
2017-04-11T13:22:07.312Z,2572
2017-04-11T13:23:07.920Z,2432
2017-04-11T13:24:08.533Z,2308
2017-04-11T13:25:09.139Z,2188
2017-04-11T13:26:09.747Z,2132
2017-04-11T13:27:10.356Z,2204
2017-04-11T13:28:10.972Z,2080
2017-04-11T13:29:11.579Z,2040
2017-04-11T13:30:12.186Z,2024
2017-04-11T13:31:12.796Z,1992
2017-04-11T13:32:13.399Z,1984
2017-04-11T13:33:14.008Z,1968
2017-04-11T13:34:14.630Z,1956
2017-04-11T13:35:15.245Z,1960
2017-04-11T13:36:15.868Z,2032
2017-04-11T13:37:16.482Z,2092
2017-04-11T13:38:17.089Z,2100
2017-04-11T13:39:17.697Z,2096
2017-04-11T13:40:18.330Z,2084
2017-04-11T13:41:18.935Z,2040
2017-04-11T13:42:19.539Z,2040
2017-04-11T13:43:20.146Z,2040
2017-04-11T13:44:20.756Z,2036
2017-04-11T13:45:21.378Z,2052
2017-04-11T13:46:21.986Z,2076
2017-04-11T13:47:22.594Z,2088
2017-04-11T13:48:23.218Z,2084
2017-04-11T13:49:23.825Z,2080
2017-04-11T13:50:24.434Z,2080
2017-04-11T13:51:25.043Z,2076
2017-04-11T13:52:25.672Z,2076
2017-04-11T13:53:26.279Z,2004
2017-04-11T13:54:26.885Z,1852
2017-04-11T13:55:27.491Z,1764
2017-04-11T13:56:28.121Z,1728
2017-04-11T13:57:28.724Z,1772
2017-04-11T13:58:29.330Z,1876
2017-04-11T13:59:29.938Z,1944